Sacramento, California
Traffic Map
Current Weather Conditions
Sacramento, California
Clear
Clear
60°
Feels Like: 60°
Wind Chill: 60° Ceiling: Unl
Heat Index: 60° Visibility: 10mi
Dew Point: 54° Wind: 0mph
Humidity: 80% Direction: ° ()
Pressure: 29.86in Gusts: 0mph
Raw Report DataKSAC 311453Z 00000KT 10SM CLR 16/12 A2986 RMK AO2 SLP109 T01560122 55011
Traffic Incident Summary
Active as of:
Severity:
Category:
InformationThere was an issue retrieving the traffic information for this location. Please try a different location or try again shortly.
Advertisements
Track Severe Weather on mobile